首页
METAR-TAF:

METAR-TAF

机场 :

帕德博恩/利普施塔特机场

Paderborn-Lippstadt, 德国

纬度: 51-37N, 经度: 008-37E, 海拔: 213米

当前天气观测

该预报发布于34分钟前的20:20 UTC
风速10节,风向
温度 3°C
湿度 81%
气压 1001 hPa
能见度10公里或以上
1500米以下无云,无积雨云

METAR: EDLP 122020Z 18010KT CAVOK 03/00 Q1001

时间: 21:54 (20:54 UTC)

预报

该预报发布于3小时和54分钟前的17:00 UTC
预报有效从12日的 18点(UTC)到 13日的 18点(UTC)
风速10节,风向
能见度10公里或以上
散云层高于3000英尺

TAF: EDLP 121700Z 1218/1318 19010KT 9999 SCT030

超过4000个机场的气象观测和天气预报(METAR&TAF报告)。

可查询的气象台以黄色和红色小点在地图上表示。

将鼠标移到小点上方,可查看气象台名称。

然后点击查看天气观测和预报。

如需切换地图:点击带黑十字的绿色按钮放大地图;点击带横线的绿色按钮缩小地图;或者点击绿色箭头查看邻近地区的地图。


METAR-TAF: